Accueil
Images satellite Prévisions 15 joursClimatMétéo marine Cyclones Foudre AéroportsFAQ Actualités A propos
Météo : Europe Afrique Amérique du Nord Amérique du Sud Asie Australie-Océanie Autres
Langues Contact

Bergerac, France

Roumanière

latitude: 44-49N, longitude: 000-31E, altitude: 51 m


METAR: LFBE 260900Z AUTO VRB02KT 0450 R28/0800U FG VV/// 11/11 Q1025
TAF: LFBE 260800Z 2609/2618 08003KT 0200 FG VV/// BECMG 2609/2611 5000 MIFG BKN005 BECMG 2611/2613 CAVOK

Heure: 10:26 (09:26 UTC)

Observation

Le bulletin a été fait il y a 26 minutes, à 09:00 UTC
Vent 2 kt de direction variable
Température 11°C
Humidité 100%
Pression 1025 hPa
Visibilité: 0450 m
brouillard

Changer d'unités

Prévision

Le bulletin a été fait il y a 1 heure et 26 minutes, à 08:00 UTC
Prévision valable du 26 à 09 UTC au 26 à 18 UTC
Vent 3 kt de est
Visibilité: 0200 m
brouillard
Evoluant progressivement
du 26 à 09 UTC au 26 à 11 UTC
Visibilité: 5000 m
Nuages fragmentés à une hauteur de 500 ft
mince brouillard
Evoluant progressivement
du 26 à 11 UTC au 26 à 13 UTC
Visibilité 10 km ou plus
pas de nuages en-dessous de 1500 mètres et pas de cumulonimbus.
Les informations qui figurent sur ce site font l'objet d'une clause de non-responsabilité
Météo : Europe Afrique Amérique du Nord Amérique du Sud Asie Australie-Océanie Autres
Images satellite Prévisions 15 joursClimatMétéo marine Cyclones Foudre AéroportsFAQ Langues Contact Actualités A propos